首页
METAR-TAF:

METAR-TAF

机场 :

El-Tor, 埃及

纬度: 28-14N, 经度: 032-37E, 海拔: 21米

当前天气观测

该预报发布于1小时和5分钟前的08:00 UTC
风速19节,风向西
温度 26°C
湿度 65%
气压 1011 hPa
能見度: 5000
扬沙,

METAR: HETR 300800Z 27019KT 5000 SA NSC 26/19 Q1011

时间: 11:05 (09:05 UTC)

预报

该预报发布于4小时和5分钟前的05:00 UTC
预报有效从30日的 06点(UTC)到 31日的 12点(UTC)
风速18节,风向西转西北,有时为28节阵风
能見度: 6000
短暂存在
从 30日的 06点(UTC)到 30日的 17点(UTC)
能見度: 4000
扬沙,

TAF: HETR 300500Z 3006/3112 30018G28KT 6000 NSC TEMPO 3006/3017 4000 SA

超过4000个机场的气象观测和天气预报(METAR&TAF报告)。

可查询的气象台以黄色和红色小点在地图上表示。

将鼠标移到小点上方,可查看气象台名称。

然后点击查看天气观测和预报。

如需切换地图:点击带黑十字的绿色按钮放大地图;点击带横线的绿色按钮缩小地图;或者点击绿色箭头查看邻近地区的地图。


METAR-TAF: